Loda, Illinois
Current Conditions -  °F | °C
As of 4:50 PM on Friday 28 Nov 2014 (Local Time) from KTIP Reporting Station
Clear Clear  
Wind Chill: -2°   Ceiling: Unl
Heat Index:   Visibility: 10mi
Dew Point:   Wind: 12mph
Humidity: 86%   Direction: 170°S
Pressure: 30"   Gusts: NA
Location:  40.52°N, 88.07°W
Report Text: KTIP 282250Z AUTO 17010KT 10SM CLR 02/00 A3000 RMK AO2 T00220000
Loading
Personal Weather Stations






























Interactive Weather Map New forecast layout! Learn more

10-Day Weather Forecast

Advertisements
Track Severe Weather on mobile